sensor_id;sensor_type;location;lat;lon;timestamp;P1;durP1;ratioP1;P2;durP2;ratioP2
73661;SDS011;61956;52.540;13.382;2022-10-04T00:01:46;2.05;;;0.65;;
73661;SDS011;61956;52.540;13.382;2022-10-04T00:04:22;1.73;;;0.40;;
73661;SDS011;61956;52.540;13.382;2022-10-04T00:06:57;6.80;;;0.60;;
73661;SDS011;61956;52.540;13.382;2022-10-04T00:09:40;0.65;;;0.20;;
73661;SDS011;61956;52.540;13.382;2022-10-04T00:12:16;0.40;;;0.10;;
73661;SDS011;61956;52.540;13.382;2022-10-04T00:14:51;2.50;;;0.40;;
73661;SDS011;61956;52.540;13.382;2022-10-04T00:17:26;2.93;;;0.40;;
73661;SDS011;61956;52.540;13.382;2022-10-04T00:20:00;3.42;;;0.50;;
73661;SDS011;61956;52.540;13.382;2022-10-04T00:22:31;6.57;;;0.50;;
73661;SDS011;61956;52.540;13.382;2022-10-04T00:31:12;0.63;;;0.20;;
73661;SDS011;61956;52.540;13.382;2022-10-04T00:33:50;0.82;;;0.20;;
73661;SDS011;61956;52.540;13.382;2022-10-04T00:39:22;1.55;;;0.20;;
73661;SDS011;61956;52.540;13.382;2022-10-04T00:42:27;1.98;;;0.40;;
73661;SDS011;61956;52.540;13.382;2022-10-04T00:45:10;1.17;;;0.38;;
73661;SDS011;61956;52.540;13.382;2022-10-04T00:51:01;2.63;;;0.28;;
73661;SDS011;61956;52.540;13.382;2022-10-04T00:53:42;0.75;;;0.17;;
73661;SDS011;61956;52.540;13.382;2022-10-04T00:56:22;5.93;;;0.60;;
73661;SDS011;61956;52.540;13.382;2022-10-04T00:59:08;7.65;;;0.50;;
73661;SDS011;61956;52.540;13.382;2022-10-04T01:01:50;2.55;;;0.70;;
73661;SDS011;61956;52.540;13.382;2022-10-04T01:04:27;8.30;;;0.50;;
73661;SDS011;61956;52.540;13.382;2022-10-04T01:07:07;3.67;;;0.32;;
73661;SDS011;61956;52.540;13.382;2022-10-04T01:09:44;6.70;;;0.70;;
73661;SDS011;61956;52.540;13.382;2022-10-04T01:12:25;0.80;;;0.30;;
73661;SDS011;61956;52.540;13.382;2022-10-04T01:15:12;1.75;;;0.40;;
73661;SDS011;61956;52.540;13.382;2022-10-04T01:18:04;1.42;;;0.60;;
73661;SDS011;61956;52.540;13.382;2022-10-04T01:20:38;1.92;;;0.45;;
73661;SDS011;61956;52.540;13.382;2022-10-04T01:23:40;2.95;;;0.30;;
73661;SDS011;61956;52.540;13.382;2022-10-04T01:29:06;2.67;;;0.63;;
73661;SDS011;61956;52.540;13.382;2022-10-04T01:31:40;2.55;;;0.90;;
73661;SDS011;61956;52.540;13.382;2022-10-04T01:34:13;8.82;;;0.88;;
73661;SDS011;61956;52.540;13.382;2022-10-04T01:36:45;3.28;;;0.30;;
73661;SDS011;61956;52.540;13.382;2022-10-04T01:39:20;2.47;;;0.30;;
73661;SDS011;61956;52.540;13.382;2022-10-04T01:41:54;8.18;;;0.68;;
73661;SDS011;61956;52.540;13.382;2022-10-04T01:44:35;1.13;;;0.30;;
73661;SDS011;61956;52.540;13.382;2022-10-04T01:47:13;1.48;;;0.35;;
73661;SDS011;61956;52.540;13.382;2022-10-04T01:49:51;3.95;;;0.50;;
73661;SDS011;61956;52.540;13.382;2022-10-04T01:52:25;5.30;;;0.73;;
73661;SDS011;61956;52.540;13.382;2022-10-04T01:55:04;2.78;;;0.43;;
73661;SDS011;61956;52.540;13.382;2022-10-04T01:57:43;3.10;;;0.40;;
73661;SDS011;61956;52.540;13.382;2022-10-04T02:00:17;3.85;;;0.40;;
73661;SDS011;61956;52.540;13.382;2022-10-04T02:02:50;10.75;;;0.70;;
73661;SDS011;61956;52.540;13.382;2022-10-04T02:05:26;1.27;;;0.50;;
73661;SDS011;61956;52.540;13.382;2022-10-04T02:08:01;2.08;;;0.40;;
73661;SDS011;61956;52.540;13.382;2022-10-04T02:10:37;2.97;;;0.85;;
73661;SDS011;61956;52.540;13.382;2022-10-04T02:13:08;4.38;;;0.47;;
73661;SDS011;61956;52.540;13.382;2022-10-04T02:15:42;5.85;;;0.40;;
73661;SDS011;61956;52.540;13.382;2022-10-04T02:18:14;0.97;;;0.30;;
73661;SDS011;61956;52.540;13.382;2022-10-04T02:20:48;1.38;;;0.40;;
73661;SDS011;61956;52.540;13.382;2022-10-04T02:23:19;1.85;;;0.50;;
73661;SDS011;61956;52.540;13.382;2022-10-04T02:25:53;2.13;;;0.47;;
73661;SDS011;61956;52.540;13.382;2022-10-04T02:28:23;1.00;;;0.20;;
73661;SDS011;61956;52.540;13.382;2022-10-04T02:30:52;3.17;;;0.50;;
73661;SDS011;61956;52.540;13.382;2022-10-04T02:33:37;1.58;;;0.50;;
73661;SDS011;61956;52.540;13.382;2022-10-04T02:36:09;4.38;;;1.05;;
73661;SDS011;61956;52.540;13.382;2022-10-04T02:38:41;4.68;;;0.52;;
73661;SDS011;61956;52.540;13.382;2022-10-04T02:41:22;1.05;;;0.20;;
73661;SDS011;61956;52.540;13.382;2022-10-04T02:43:57;1.83;;;0.10;;
73661;SDS011;61956;52.540;13.382;2022-10-04T02:46:37;0.50;;;0.20;;
73661;SDS011;61956;52.540;13.382;2022-10-04T02:49:19;1.88;;;0.32;;
73661;SDS011;61956;52.540;13.382;2022-10-04T02:51:58;2.78;;;0.50;;
73661;SDS011;61956;52.540;13.382;2022-10-04T02:54:35;1.52;;;0.47;;
73661;SDS011;61956;52.540;13.382;2022-10-04T02:57:15;0.40;;;0.20;;
73661;SDS011;61956;52.540;13.382;2022-10-04T02:59:48;4.68;;;0.98;;
73661;SDS011;61956;52.540;13.382;2022-10-04T03:02:23;2.70;;;0.30;;
73661;SDS011;61956;52.540;13.382;2022-10-04T03:04:57;3.50;;;0.38;;
73661;SDS011;61956;52.540;13.382;2022-10-04T03:07:32;2.55;;;0.45;;
73661;SDS011;61956;52.540;13.382;2022-10-04T03:10:05;1.63;;;0.13;;
73661;SDS011;61956;52.540;13.382;2022-10-04T03:12:42;2.65;;;0.40;;
73661;SDS011;61956;52.540;13.382;2022-10-04T03:15:20;4.00;;;0.47;;
73661;SDS011;61956;52.540;13.382;2022-10-04T03:17:49;8.57;;;0.80;;
73661;SDS011;61956;52.540;13.382;2022-10-04T03:20:18;1.80;;;0.22;;
73661;SDS011;61956;52.540;13.382;2022-10-04T03:22:48;3.20;;;0.60;;
73661;SDS011;61956;52.540;13.382;2022-10-04T03:25:23;0.30;;;0.10;;
73661;SDS011;61956;52.540;13.382;2022-10-04T03:28:00;3.10;;;0.38;;
73661;SDS011;61956;52.540;13.382;2022-10-04T03:30:31;0.60;;;0.20;;
73661;SDS011;61956;52.540;13.382;2022-10-04T03:33:03;3.65;;;0.50;;
73661;SDS011;61956;52.540;13.382;2022-10-04T03:35:33;4.57;;;1.13;;
73661;SDS011;61956;52.540;13.382;2022-10-04T03:38:07;1.92;;;0.22;;
73661;SDS011;61956;52.540;13.382;2022-10-04T03:40:41;11.57;;;0.68;;
73661;SDS011;61956;52.540;13.382;2022-10-04T03:43:22;2.60;;;0.50;;
73661;SDS011;61956;52.540;13.382;2022-10-04T03:45:56;2.63;;;0.50;;
73661;SDS011;61956;52.540;13.382;2022-10-04T03:48:30;4.70;;;0.40;;
73661;SDS011;61956;52.540;13.382;2022-10-04T03:51:06;2.58;;;0.68;;
73661;SDS011;61956;52.540;13.382;2022-10-04T03:53:44;2.03;;;0.50;;
73661;SDS011;61956;52.540;13.382;2022-10-04T03:56:17;1.55;;;0.70;;
73661;SDS011;61956;52.540;13.382;2022-10-04T03:58:55;4.28;;;0.40;;
73661;SDS011;61956;52.540;13.382;2022-10-04T04:01:33;4.90;;;0.83;;
73661;SDS011;61956;52.540;13.382;2022-10-04T04:04:11;6.07;;;0.50;;
73661;SDS011;61956;52.540;13.382;2022-10-04T04:06:51;4.50;;;0.52;;
73661;SDS011;61956;52.540;13.382;2022-10-04T04:09:33;2.70;;;0.40;;
73661;SDS011;61956;52.540;13.382;2022-10-04T04:12:12;3.60;;;0.50;;
73661;SDS011;61956;52.540;13.382;2022-10-04T04:14:50;0.73;;;0.20;;
73661;SDS011;61956;52.540;13.382;2022-10-04T04:17:34;6.13;;;0.68;;
73661;SDS011;61956;52.540;13.382;2022-10-04T04:22:59;0.52;;;0.15;;
73661;SDS011;61956;52.540;13.382;2022-10-04T04:25:36;2.67;;;0.40;;
73661;SDS011;61956;52.540;13.382;2022-10-04T04:28:12;1.83;;;0.50;;
73661;SDS011;61956;52.540;13.382;2022-10-04T04:30:56;0.40;;;0.10;;
73661;SDS011;61956;52.540;13.382;2022-10-04T04:33:32;1.35;;;0.35;;
73661;SDS011;61956;52.540;13.382;2022-10-04T04:36:11;3.70;;;0.38;;
73661;SDS011;61956;52.540;13.382;2022-10-04T04:38:43;2.75;;;1.02;;
73661;SDS011;61956;52.540;13.382;2022-10-04T04:41:25;2.33;;;0.30;;
73661;SDS011;61956;52.540;13.382;2022-10-04T04:43:59;0.30;;;0.10;;
73661;SDS011;61956;52.540;13.382;2022-10-04T04:46:32;7.93;;;0.85;;
73661;SDS011;61956;52.540;13.382;2022-10-04T04:49:01;0.28;;;0.10;;
73661;SDS011;61956;52.540;13.382;2022-10-04T04:51:33;1.23;;;0.22;;
73661;SDS011;61956;52.540;13.382;2022-10-04T04:54:03;0.70;;;0.40;;
73661;SDS011;61956;52.540;13.382;2022-10-04T04:56:34;1.52;;;0.28;;
73661;SDS011;61956;52.540;13.382;2022-10-04T04:59:05;2.58;;;0.60;;
73661;SDS011;61956;52.540;13.382;2022-10-04T05:01:40;2.05;;;0.40;;
73661;SDS011;61956;52.540;13.382;2022-10-04T05:04:16;3.80;;;0.95;;
73661;SDS011;61956;52.540;13.382;2022-10-04T05:06:57;3.10;;;0.53;;
73661;SDS011;61956;52.540;13.382;2022-10-04T05:09:30;3.67;;;0.88;;
73661;SDS011;61956;52.540;13.382;2022-10-04T05:12:03;1.50;;;0.20;;
73661;SDS011;61956;52.540;13.382;2022-10-04T05:14:38;1.60;;;0.22;;
73661;SDS011;61956;52.540;13.382;2022-10-04T05:17:19;3.13;;;0.52;;
73661;SDS011;61956;52.540;13.382;2022-10-04T05:19:56;0.90;;;0.30;;
73661;SDS011;61956;52.540;13.382;2022-10-04T05:22:29;1.67;;;0.30;;
73661;SDS011;61956;52.540;13.382;2022-10-04T05:25:01;0.32;;;0.10;;
73661;SDS011;61956;52.540;13.382;2022-10-04T05:27:37;4.35;;;0.55;;
73661;SDS011;61956;52.540;13.382;2022-10-04T05:30:12;6.78;;;0.65;;
73661;SDS011;61956;52.540;13.382;2022-10-04T05:33:02;1.53;;;0.30;;
73661;SDS011;61956;52.540;13.382;2022-10-04T05:35:41;1.77;;;0.32;;
73661;SDS011;61956;52.540;13.382;2022-10-04T05:38:26;5.18;;;0.50;;
73661;SDS011;61956;52.540;13.382;2022-10-04T05:41:08;6.63;;;0.32;;
73661;SDS011;61956;52.540;13.382;2022-10-04T05:43:50;3.20;;;0.63;;
73661;SDS011;61956;52.540;13.382;2022-10-04T05:46:20;5.23;;;0.40;;
73661;SDS011;61956;52.540;13.382;2022-10-04T05:48:57;1.75;;;0.47;;
73661;SDS011;61956;52.540;13.382;2022-10-04T05:51:46;4.22;;;0.75;;
73661;SDS011;61956;52.540;13.382;2022-10-04T05:54:18;0.98;;;0.30;;
73661;SDS011;61956;52.540;13.382;2022-10-04T05:57:02;1.92;;;0.32;;
73661;SDS011;61956;52.540;13.382;2022-10-04T06:00:00;3.07;;;0.67;;
73661;SDS011;61956;52.540;13.382;2022-10-04T06:05:58;1.60;;;0.40;;
73661;SDS011;61956;52.540;13.382;2022-10-04T06:08:37;3.50;;;0.80;;
73661;SDS011;61956;52.540;13.382;2022-10-04T06:11:23;1.02;;;0.30;;
73661;SDS011;61956;52.540;13.382;2022-10-04T06:17:17;1.83;;;0.52;;
73661;SDS011;61956;52.540;13.382;2022-10-04T06:20:20;4.70;;;0.63;;
73661;SDS011;61956;52.540;13.382;2022-10-04T06:23:21;3.08;;;0.40;;
73661;SDS011;61956;52.540;13.382;2022-10-04T06:25:57;1.55;;;0.32;;
73661;SDS011;61956;52.540;13.382;2022-10-04T06:28:34;1.52;;;0.47;;
73661;SDS011;61956;52.540;13.382;2022-10-04T06:34:34;1.00;;;0.28;;
73661;SDS011;61956;52.540;13.382;2022-10-04T06:44:47;1.60;;;0.40;;
73661;SDS011;61956;52.540;13.382;2022-10-04T06:47:45;4.05;;;0.60;;
73661;SDS011;61956;52.540;13.382;2022-10-04T06:50:37;4.53;;;0.47;;
73661;SDS011;61956;52.540;13.382;2022-10-04T06:53:22;1.02;;;0.30;;
73661;SDS011;61956;52.540;13.382;2022-10-04T06:56:15;2.85;;;0.30;;
73661;SDS011;61956;52.540;13.382;2022-10-04T06:59:28;2.07;;;0.40;;
73661;SDS011;61956;52.540;13.382;2022-10-04T07:02:18;1.07;;;0.33;;
73661;SDS011;61956;52.540;13.382;2022-10-04T07:04:53;2.35;;;0.50;;
73661;SDS011;61956;52.540;13.382;2022-10-04T07:07:30;3.83;;;0.80;;
73661;SDS011;61956;52.540;13.382;2022-10-04T07:10:15;4.70;;;1.75;;
73661;SDS011;61956;52.540;13.382;2022-10-04T07:16:08;3.03;;;0.93;;
73661;SDS011;61956;52.540;13.382;2022-10-04T07:19:06;3.92;;;0.63;;
73661;SDS011;61956;52.540;13.382;2022-10-04T07:21:57;3.13;;;0.98;;
73661;SDS011;61956;52.540;13.382;2022-10-04T07:24:43;0.25;;;0.10;;
73661;SDS011;61956;52.540;13.382;2022-10-04T07:27:26;1.73;;;0.60;;
73661;SDS011;61956;52.540;13.382;2022-10-04T07:30:03;4.90;;;0.63;;
73661;SDS011;61956;52.540;13.382;2022-10-04T07:32:36;1.48;;;0.55;;
73661;SDS011;61956;52.540;13.382;2022-10-04T07:35:13;1.10;;;0.32;;
73661;SDS011;61956;52.540;13.382;2022-10-04T07:37:59;1.35;;;0.43;;
73661;SDS011;61956;52.540;13.382;2022-10-04T07:40:45;3.03;;;0.73;;
73661;SDS011;61956;52.540;13.382;2022-10-04T07:43:32;4.77;;;0.93;;
73661;SDS011;61956;52.540;13.382;2022-10-04T07:46:10;1.35;;;0.32;;
73661;SDS011;61956;52.540;13.382;2022-10-04T07:49:00;2.53;;;0.65;;
73661;SDS011;61956;52.540;13.382;2022-10-04T07:51:31;6.28;;;0.73;;
73661;SDS011;61956;52.540;13.382;2022-10-04T07:54:11;4.88;;;1.00;;
73661;SDS011;61956;52.540;13.382;2022-10-04T07:56:51;3.17;;;0.77;;
73661;SDS011;61956;52.540;13.382;2022-10-04T07:59:31;2.08;;;0.70;;
73661;SDS011;61956;52.540;13.382;2022-10-04T08:02:16;1.42;;;0.40;;
73661;SDS011;61956;52.540;13.382;2022-10-04T08:05:04;2.38;;;0.40;;
73661;SDS011;61956;52.540;13.382;2022-10-04T08:07:55;2.17;;;0.65;;
73661;SDS011;61956;52.540;13.382;2022-10-04T08:10:48;4.10;;;0.67;;
73661;SDS011;61956;52.540;13.382;2022-10-04T08:13:32;2.97;;;0.65;;
73661;SDS011;61956;52.540;13.382;2022-10-04T08:16:13;3.30;;;1.20;;
73661;SDS011;61956;52.540;13.382;2022-10-04T08:19:04;7.07;;;0.90;;
73661;SDS011;61956;52.540;13.382;2022-10-04T08:21:57;2.00;;;0.55;;
73661;SDS011;61956;52.540;13.382;2022-10-04T08:24:34;1.63;;;0.43;;
73661;SDS011;61956;52.540;13.382;2022-10-04T08:30:39;6.60;;;2.05;;
73661;SDS011;61956;52.540;13.382;2022-10-04T08:33:45;5.97;;;1.48;;
73661;SDS011;61956;52.540;13.382;2022-10-04T08:36:40;4.45;;;0.90;;
73661;SDS011;61956;52.540;13.382;2022-10-04T08:39:34;1.53;;;0.60;;
73661;SDS011;61956;52.540;13.382;2022-10-04T08:45:50;4.90;;;1.00;;
73661;SDS011;61956;52.540;13.382;2022-10-04T08:52:32;4.25;;;1.00;;
73661;SDS011;61956;52.540;13.382;2022-10-04T08:58:27;4.47;;;1.08;;
73661;SDS011;61956;52.540;13.382;2022-10-04T09:04:36;2.75;;;1.00;;
73661;SDS011;61956;52.540;13.382;2022-10-04T09:07:50;6.68;;;0.88;;
73661;SDS011;61956;52.540;13.382;2022-10-04T09:10:58;2.37;;;0.70;;
73661;SDS011;61956;52.540;13.382;2022-10-04T09:14:26;2.60;;;0.85;;
73661;SDS011;61956;52.540;13.382;2022-10-04T09:17:30;3.55;;;0.82;;
73661;SDS011;61956;52.540;13.382;2022-10-04T09:20:19;2.67;;;1.10;;
73661;SDS011;61956;52.540;13.382;2022-10-04T09:23:05;11.15;;;2.38;;
73661;SDS011;61956;52.540;13.382;2022-10-04T09:26:13;3.80;;;1.30;;
73661;SDS011;61956;52.540;13.382;2022-10-04T09:32:04;5.50;;;1.17;;
73661;SDS011;61956;52.540;13.382;2022-10-04T09:35:08;15.05;;;4.93;;
73661;SDS011;61956;52.540;13.382;2022-10-04T09:38:22;3.63;;;1.20;;
73661;SDS011;61956;52.540;13.382;2022-10-04T09:41:25;6.43;;;0.93;;
73661;SDS011;61956;52.540;13.382;2022-10-04T09:47:28;7.07;;;1.65;;
73661;SDS011;61956;52.540;13.382;2022-10-04T09:50:09;6.82;;;1.95;;
73661;SDS011;61956;52.540;13.382;2022-10-04T09:53:05;2.35;;;0.50;;
73661;SDS011;61956;52.540;13.382;2022-10-04T09:56:08;6.60;;;2.53;;
73661;SDS011;61956;52.540;13.382;2022-10-04T09:59:09;2.38;;;1.00;;
73661;SDS011;61956;52.540;13.382;2022-10-04T10:02:10;2.25;;;0.55;;
73661;SDS011;61956;52.540;13.382;2022-10-04T10:05:13;3.53;;;0.95;;
73661;SDS011;61956;52.540;13.382;2022-10-04T10:08:07;3.00;;;0.90;;
73661;SDS011;61956;52.540;13.382;2022-10-04T10:10:53;4.47;;;0.90;;
73661;SDS011;61956;52.540;13.382;2022-10-04T10:17:00;3.05;;;1.05;;
73661;SDS011;61956;52.540;13.382;2022-10-04T10:26:19;2.03;;;0.50;;
73661;SDS011;61956;52.540;13.382;2022-10-04T10:29:17;3.13;;;0.68;;
73661;SDS011;61956;52.540;13.382;2022-10-04T10:32:35;2.15;;;0.50;;
73661;SDS011;61956;52.540;13.382;2022-10-04T10:38:48;1.75;;;0.57;;
73661;SDS011;61956;52.540;13.382;2022-10-04T10:41:44;2.67;;;0.50;;
73661;SDS011;61956;52.540;13.382;2022-10-04T10:44:40;2.40;;;0.60;;
73661;SDS011;61956;52.540;13.382;2022-10-04T10:47:39;2.97;;;0.60;;
73661;SDS011;61956;52.540;13.382;2022-10-04T10:50:24;2.25;;;0.60;;
73661;SDS011;61956;52.540;13.382;2022-10-04T10:53:31;5.03;;;0.43;;
73661;SDS011;61956;52.540;13.382;2022-10-04T10:57:02;1.97;;;0.57;;
73661;SDS011;61956;52.540;13.382;2022-10-04T11:03:18;6.45;;;0.82;;
73661;SDS011;61956;52.540;13.382;2022-10-04T11:09:33;1.77;;;0.50;;
73661;SDS011;61956;52.540;13.382;2022-10-04T11:12:38;2.20;;;0.50;;
73661;SDS011;61956;52.540;13.382;2022-10-04T11:19:00;3.65;;;0.77;;
73661;SDS011;61956;52.540;13.382;2022-10-04T11:22:10;3.92;;;0.30;;
73661;SDS011;61956;52.540;13.382;2022-10-04T11:25:15;2.53;;;0.57;;
73661;SDS011;61956;52.540;13.382;2022-10-04T11:28:09;2.33;;;0.70;;
73661;SDS011;61956;52.540;13.382;2022-10-04T11:31:00;4.68;;;1.13;;
73661;SDS011;61956;52.540;13.382;2022-10-04T11:37:42;4.13;;;0.73;;
73661;SDS011;61956;52.540;13.382;2022-10-04T11:40:32;5.82;;;0.85;;
73661;SDS011;61956;52.540;13.382;2022-10-04T11:43:29;4.17;;;0.87;;
73661;SDS011;61956;52.540;13.382;2022-10-04T11:46:26;4.50;;;0.63;;
73661;SDS011;61956;52.540;13.382;2022-10-04T11:49:11;9.65;;;1.63;;
73661;SDS011;61956;52.540;13.382;2022-10-04T11:52:11;2.20;;;0.80;;
73661;SDS011;61956;52.540;13.382;2022-10-04T11:58:37;3.30;;;0.43;;
73661;SDS011;61956;52.540;13.382;2022-10-04T12:07:51;1.92;;;0.47;;
73661;SDS011;61956;52.540;13.382;2022-10-04T12:10:40;1.50;;;0.50;;
73661;SDS011;61956;52.540;13.382;2022-10-04T12:13:22;3.20;;;0.60;;
73661;SDS011;61956;52.540;13.382;2022-10-04T12:19:54;4.40;;;0.57;;
73661;SDS011;61956;52.540;13.382;2022-10-04T12:30:21;3.10;;;0.90;;
73661;SDS011;61956;52.540;13.382;2022-10-04T12:33:10;3.30;;;0.60;;
73661;SDS011;61956;52.540;13.382;2022-10-04T12:36:00;1.73;;;0.50;;
73661;SDS011;61956;52.540;13.382;2022-10-04T12:41:56;1.58;;;0.63;;
73661;SDS011;61956;52.540;13.382;2022-10-04T12:44:50;2.47;;;0.77;;
73661;SDS011;61956;52.540;13.382;2022-10-04T12:47:55;4.65;;;0.68;;
73661;SDS011;61956;52.540;13.382;2022-10-04T12:50:45;2.53;;;0.60;;
73661;SDS011;61956;52.540;13.382;2022-10-04T12:53:32;2.63;;;0.70;;
73661;SDS011;61956;52.540;13.382;2022-10-04T12:56:16;6.22;;;0.98;;
73661;SDS011;61956;52.540;13.382;2022-10-04T12:59:16;1.27;;;0.47;;
73661;SDS011;61956;52.540;13.382;2022-10-04T13:05:32;3.10;;;0.50;;
73661;SDS011;61956;52.540;13.382;2022-10-04T13:08:19;2.30;;;0.50;;
73661;SDS011;61956;52.540;13.382;2022-10-04T13:17:30;2.88;;;0.60;;
73661;SDS011;61956;52.540;13.382;2022-10-04T13:20:19;5.38;;;0.70;;
73661;SDS011;61956;52.540;13.382;2022-10-04T13:23:12;1.85;;;0.28;;
73661;SDS011;61956;52.540;13.382;2022-10-04T13:26:14;0.63;;;0.30;;
73661;SDS011;61956;52.540;13.382;2022-10-04T13:29:10;1.20;;;0.33;;
73661;SDS011;61956;52.540;13.382;2022-10-04T13:31:56;4.28;;;0.60;;
73661;SDS011;61956;52.540;13.382;2022-10-04T13:34:36;2.47;;;0.60;;
73661;SDS011;61956;52.540;13.382;2022-10-04T13:37:23;2.33;;;0.60;;
73661;SDS011;61956;52.540;13.382;2022-10-04T13:40:13;1.15;;;0.30;;
73661;SDS011;61956;52.540;13.382;2022-10-04T13:43:10;1.07;;;0.30;;
73661;SDS011;61956;52.540;13.382;2022-10-04T13:46:28;6.03;;;0.40;;
73661;SDS011;61956;52.540;13.382;2022-10-04T13:49:18;4.22;;;0.32;;
73661;SDS011;61956;52.540;13.382;2022-10-04T13:52:08;2.53;;;0.70;;
73661;SDS011;61956;52.540;13.382;2022-10-04T13:55:18;1.88;;;0.50;;
73661;SDS011;61956;52.540;13.382;2022-10-04T13:58:18;4.87;;;0.67;;
73661;SDS011;61956;52.540;13.382;2022-10-04T14:01:19;4.95;;;0.68;;
73661;SDS011;61956;52.540;13.382;2022-10-04T14:04:22;1.60;;;0.40;;
73661;SDS011;61956;52.540;13.382;2022-10-04T14:07:40;3.53;;;0.30;;
73661;SDS011;61956;52.540;13.382;2022-10-04T14:10:43;1.33;;;0.22;;
73661;SDS011;61956;52.540;13.382;2022-10-04T14:14:05;3.10;;;0.30;;
73661;SDS011;61956;52.540;13.382;2022-10-04T14:17:17;4.43;;;0.35;;
73661;SDS011;61956;52.540;13.382;2022-10-04T14:20:35;2.47;;;0.30;;
73661;SDS011;61956;52.540;13.382;2022-10-04T14:23:51;2.97;;;0.47;;
73661;SDS011;61956;52.540;13.382;2022-10-04T14:27:02;2.85;;;0.60;;
73661;SDS011;61956;52.540;13.382;2022-10-04T14:29:59;2.43;;;0.60;;
73661;SDS011;61956;52.540;13.382;2022-10-04T14:36:06;1.38;;;0.40;;
73661;SDS011;61956;52.540;13.382;2022-10-04T14:39:24;2.58;;;0.50;;
73661;SDS011;61956;52.540;13.382;2022-10-04T14:42:27;1.77;;;0.40;;
73661;SDS011;61956;52.540;13.382;2022-10-04T14:45:31;1.50;;;0.20;;
73661;SDS011;61956;52.540;13.382;2022-10-04T14:48:27;0.85;;;0.30;;
73661;SDS011;61956;52.540;13.382;2022-10-04T14:51:21;0.73;;;0.28;;
73661;SDS011;61956;52.540;13.382;2022-10-04T14:54:07;1.42;;;0.32;;
73661;SDS011;61956;52.540;13.382;2022-10-04T14:59:47;4.37;;;0.37;;
73661;SDS011;61956;52.540;13.382;2022-10-04T15:02:49;0.93;;;0.30;;
73661;SDS011;61956;52.540;13.382;2022-10-04T15:05:54;0.93;;;0.30;;
73661;SDS011;61956;52.540;13.382;2022-10-04T15:08:58;0.63;;;0.28;;
73661;SDS011;61956;52.540;13.382;2022-10-04T15:11:55;0.98;;;0.30;;
73661;SDS011;61956;52.540;13.382;2022-10-04T15:14:35;1.67;;;0.50;;
73661;SDS011;61956;52.540;13.382;2022-10-04T15:17:09;1.60;;;0.43;;
73661;SDS011;61956;52.540;13.382;2022-10-04T15:19:59;1.13;;;0.30;;
73661;SDS011;61956;52.540;13.382;2022-10-04T15:22:45;1.27;;;0.30;;
73661;SDS011;61956;52.540;13.382;2022-10-04T15:25:37;1.05;;;0.20;;
73661;SDS011;61956;52.540;13.382;2022-10-04T15:28:24;1.13;;;0.20;;
73661;SDS011;61956;52.540;13.382;2022-10-04T15:31:15;1.48;;;0.40;;
73661;SDS011;61956;52.540;13.382;2022-10-04T15:33:55;1.70;;;0.50;;
73661;SDS011;61956;52.540;13.382;2022-10-04T15:36:41;1.58;;;0.20;;
73661;SDS011;61956;52.540;13.382;2022-10-04T15:39:39;4.13;;;0.40;;
73661;SDS011;61956;52.540;13.382;2022-10-04T15:42:26;1.53;;;0.40;;
73661;SDS011;61956;52.540;13.382;2022-10-04T15:51:06;3.80;;;0.38;;
73661;SDS011;61956;52.540;13.382;2022-10-04T15:53:48;2.60;;;0.50;;
73661;SDS011;61956;52.540;13.382;2022-10-04T15:56:42;3.20;;;0.60;;
73661;SDS011;61956;52.540;13.382;2022-10-04T15:59:34;1.80;;;0.30;;
73661;SDS011;61956;52.540;13.382;2022-10-04T16:05:36;1.20;;;0.20;;
73661;SDS011;61956;52.540;13.382;2022-10-04T16:08:15;2.78;;;0.30;;
73661;SDS011;61956;52.540;13.382;2022-10-04T16:11:13;2.70;;;0.50;;
73661;SDS011;61956;52.540;13.382;2022-10-04T16:14:16;0.45;;;0.15;;
73661;SDS011;61956;52.540;13.382;2022-10-04T16:17:12;1.00;;;0.30;;
73661;SDS011;61956;52.540;13.382;2022-10-04T16:23:40;3.05;;;0.65;;
73661;SDS011;61956;52.540;13.382;2022-10-04T16:26:12;2.05;;;0.57;;
73661;SDS011;61956;52.540;13.382;2022-10-04T16:29:33;2.35;;;0.43;;
73661;SDS011;61956;52.540;13.382;2022-10-04T16:32:21;1.98;;;0.40;;
73661;SDS011;61956;52.540;13.382;2022-10-04T16:35:00;0.88;;;0.30;;
73661;SDS011;61956;52.540;13.382;2022-10-04T16:37:37;3.67;;;0.80;;
73661;SDS011;61956;52.540;13.382;2022-10-04T16:40:23;1.90;;;0.37;;
73661;SDS011;61956;52.540;13.382;2022-10-04T16:43:03;1.35;;;0.35;;
73661;SDS011;61956;52.540;13.382;2022-10-04T16:45:49;1.35;;;0.35;;
73661;SDS011;61956;52.540;13.382;2022-10-04T16:48:48;1.58;;;0.32;;
73661;SDS011;61956;52.540;13.382;2022-10-04T17:01:25;2.90;;;0.35;;
73661;SDS011;61956;52.540;13.382;2022-10-04T17:04:25;2.30;;;0.70;;
73661;SDS011;61956;52.540;13.382;2022-10-04T17:07:51;2.92;;;0.55;;
73661;SDS011;61956;52.540;13.382;2022-10-04T17:10:57;1.27;;;0.30;;
73661;SDS011;61956;52.540;13.382;2022-10-04T17:14:05;0.93;;;0.30;;
73661;SDS011;61956;52.540;13.382;2022-10-04T17:17:27;3.10;;;0.52;;
73661;SDS011;61956;52.540;13.382;2022-10-04T17:20:15;1.10;;;0.25;;
73661;SDS011;61956;52.540;13.382;2022-10-04T17:23:05;4.53;;;0.40;;
73661;SDS011;61956;52.540;13.382;2022-10-04T17:25:58;1.50;;;0.40;;
73661;SDS011;61956;52.540;13.382;2022-10-04T17:28:45;1.88;;;0.50;;
73661;SDS011;61956;52.540;13.382;2022-10-04T17:31:25;2.70;;;0.43;;
73661;SDS011;61956;52.540;13.382;2022-10-04T17:34:08;3.70;;;0.40;;
73661;SDS011;61956;52.540;13.382;2022-10-04T17:36:48;3.03;;;0.52;;
73661;SDS011;61956;52.540;13.382;2022-10-04T17:39:34;37.37;;;17.10;;
73661;SDS011;61956;52.540;13.382;2022-10-04T17:42:19;139.00;;;60.40;;
73661;SDS011;61956;52.540;13.382;2022-10-04T17:45:11;171.52;;;70.20;;
73661;SDS011;61956;52.540;13.382;2022-10-04T17:48:17;91.25;;;48.33;;
73661;SDS011;61956;52.540;13.382;2022-10-04T17:51:09;28.30;;;13.02;;
73661;SDS011;61956;52.540;13.382;2022-10-04T17:54:10;144.15;;;59.72;;
73661;SDS011;61956;52.540;13.382;2022-10-04T17:57:07;228.55;;;114.95;;
73661;SDS011;61956;52.540;13.382;2022-10-04T17:59:50;134.18;;;62.17;;
73661;SDS011;61956;52.540;13.382;2022-10-04T18:02:44;20.00;;;8.55;;
73661;SDS011;61956;52.540;13.382;2022-10-04T18:05:27;16.52;;;7.90;;
73661;SDS011;61956;52.540;13.382;2022-10-04T18:08:06;38.90;;;14.90;;
73661;SDS011;61956;52.540;13.382;2022-10-04T18:10:46;12.30;;;5.13;;
73661;SDS011;61956;52.540;13.382;2022-10-04T18:13:22;7.60;;;2.75;;
73661;SDS011;61956;52.540;13.382;2022-10-04T18:16:07;7.60;;;2.17;;
73661;SDS011;61956;52.540;13.382;2022-10-04T18:18:48;8.27;;;2.10;;
73661;SDS011;61956;52.540;13.382;2022-10-04T18:21:18;6.40;;;1.20;;
73661;SDS011;61956;52.540;13.382;2022-10-04T18:23:55;11.63;;;1.70;;
73661;SDS011;61956;52.540;13.382;2022-10-04T18:26:30;1.65;;;0.52;;
73661;SDS011;61956;52.540;13.382;2022-10-04T18:29:00;4.25;;;1.10;;
73661;SDS011;61956;52.540;13.382;2022-10-04T18:31:33;3.63;;;1.00;;
73661;SDS011;61956;52.540;13.382;2022-10-04T18:34:18;4.73;;;0.90;;
73661;SDS011;61956;52.540;13.382;2022-10-04T18:37:01;2.15;;;0.45;;
73661;SDS011;61956;52.540;13.382;2022-10-04T18:39:46;26.00;;;11.40;;
73661;SDS011;61956;52.540;13.382;2022-10-04T18:42:18;27.85;;;11.40;;
73661;SDS011;61956;52.540;13.382;2022-10-04T18:44:57;5.10;;;1.48;;
73661;SDS011;61956;52.540;13.382;2022-10-04T18:47:32;14.87;;;4.50;;
73661;SDS011;61956;52.540;13.382;2022-10-04T18:50:12;12.73;;;4.75;;
73661;SDS011;61956;52.540;13.382;2022-10-04T18:52:48;14.27;;;5.20;;
73661;SDS011;61956;52.540;13.382;2022-10-04T18:55:37;39.42;;;16.17;;
73661;SDS011;61956;52.540;13.382;2022-10-04T18:58:22;6.57;;;1.30;;